sim
Sign-in with your pilot id or email,
or register
Callsign
Passwort

Schedule Details

Flight Number: DLH2683 (2)
Departure: Palermo Falcone-Borsellino Airport (LICJ) at 17:15
Arrival: Munich Airport (EDDM) at 19:20
Route: Lufthansa Passenger Schedule. Enter filed route here before submitting Pirep.

Weather Information
Getting current METAR information for LICJ 261720Z 26027KT 9999 SCT025 22/10 Q1008
Getting current METAR information for EDDM 261720Z 25022KT 9999 -RA SCT023 OVC029 07/04 Q1000 NOSIG

Schedule Frequency

Route Map